Time;durP1;ratioP1;P1;durP2;ratioP2;P2;SDS_P1;SDS_P2;PMS_P1;PMS_P2;Temp;Humidity;BMP_temperature;BMP_pressure;BME280_temperature;BME280_humidity;BME280_pressure;Samples;Min_cycle;Max_cycle;Signal;HPM_P1;HPM_P2
2023/03/30 00:02:23;;;;;;;21.80;8.10;;;;;;;-141.97;38.72;47645.94;4886545;29;20858;-91
2023/03/30 00:04:50;;;;;;;16.13;6.80;;;;;;;-141.97;38.48;47601.72;4885441;29;20423;-92
2023/03/30 00:07:16;;;;;;;13.03;5.57;;;;;;;-141.97;38.78;47409.53;4916875;29;20413;-92
2023/03/30 00:09:42;;;;;;;10.60;4.83;;;;;;;-141.97;39.44;47642.09;4916892;29;20490;-93
2023/03/30 00:12:09;;;;;;;10.47;5.40;;;;;;;-141.97;39.45;47603.66;4917215;29;20155;-92
2023/03/30 00:14:36;;;;;;;14.70;5.20;;;;;;;-141.97;39.34;47590.19;4901007;29;20493;-93
2023/03/30 00:17:06;;;;;;;15.30;7.57;;;;;;;-141.97;39.41;47457.56;4916924;29;20812;-93
2023/03/30 00:19:32;;;;;;;28.20;12.40;;;;;;;-141.97;39.16;47576.75;4916379;29;20526;-92
2023/03/30 00:21:58;;;;;;;13.37;6.53;;;;;;;-141.97;39.09;47611.34;4900489;29;20435;-92
2023/03/30 00:24:23;;;;;;;19.57;8.77;;;;;;;-141.97;39.40;47457.56;4887121;29;20167;-92
2023/03/30 00:26:49;;;;;;;23.57;10.07;;;;;;;-141.97;39.45;47576.75;4888890;29;20171;-93
2023/03/30 00:29:14;;;;;;;19.87;9.83;;;;;;;-141.97;39.43;47486.41;4920169;29;20659;-91
2023/03/30 00:31:40;;;;;;;17.63;8.93;;;;;;;-141.97;39.65;47555.59;4916302;29;20178;-93
2023/03/30 00:34:05;;;;;;;18.90;9.27;;;;;;;-141.97;39.61;47569.06;4917626;29;20262;-92
2023/03/30 00:36:35;;;;;;;18.57;7.40;;;;;;;-141.97;39.96;47388.38;4916343;29;20218;-92
2023/03/30 00:39:05;;;;;;;9.80;4.70;;;;;;;-141.97;39.84;47534.44;4903126;29;20290;-93
2023/03/30 00:41:34;;;;;;;12.00;5.13;;;;;;;-141.97;39.76;47547.91;4902543;29;20932;-92
2023/03/30 00:44:03;;;;;;;10.23;5.27;;;;;;;-141.97;39.36;47620.94;4886407;29;20423;-94
2023/03/30 00:46:30;;;;;;;8.97;4.23;;;;;;;-141.97;39.48;47569.06;4900834;29;20446;-93
2023/03/30 00:48:59;;;;;;;8.63;4.87;;;;;;;-141.97;39.42;47647.84;4883938;29;20863;-94
2023/03/30 00:51:29;;;;;;;10.43;5.27;;;;;;;-141.97;39.25;47565.22;4915466;29;20797;-93
2023/03/30 00:54:03;;;;;;;8.97;4.87;;;;;;;-141.97;39.42;47461.41;4870182;29;20886;-93
2023/03/30 00:56:30;;;;;;;8.67;4.87;;;;;;;-141.97;39.61;47432.59;4884831;29;20518;-93
2023/03/30 00:58:55;;;;;;;11.97;4.90;;;;;;;-141.97;39.61;47559.44;4884429;29;20470;-93
2023/03/30 01:01:27;;;;;;;7.27;4.40;;;;;;;-141.97;39.40;47569.06;4906106;29;20412;-91
2023/03/30 01:03:56;;;;;;;8.53;3.90;;;;;;;-141.97;39.37;47446.03;4903194;29;20188;-93
2023/03/30 01:06:23;;;;;;;7.77;3.70;;;;;;;-141.97;39.46;47611.34;4895286;29;20403;-91
2023/03/30 01:08:53;;;;;;;8.20;4.30;;;;;;;-141.97;39.58;47559.44;4931633;29;20445;-92
2023/03/30 01:11:20;;;;;;;7.87;4.80;;;;;;;-141.97;39.68;47546.00;4915314;29;20417;-91
2023/03/30 01:13:48;;;;;;;7.93;4.73;;;;;;;-141.97;39.97;47542.16;4891948;29;20462;-93
2023/03/30 01:16:29;;;;;;;9.90;5.13;;;;;;;-141.97;40.10;47597.88;4894972;29;20426;-91
2023/03/30 01:19:42;;;;;;;8.77;4.40;;;;;;;-141.97;40.15;47519.06;4904259;29;20414;-93
2023/03/30 01:22:25;;;;;;;10.50;4.40;;;;;;;-141.97;40.26;47536.38;4915837;29;20422;-93
2023/03/30 01:24:54;;;;;;;7.70;3.90;;;;;;;-141.97;40.01;47592.13;4885169;29;20417;-93
2023/03/30 01:27:47;;;;;;;7.63;3.73;;;;;;;-141.97;40.66;47570.97;4900243;29;20423;-93
2023/03/30 01:30:30;;;;;;;8.20;3.90;;;;;;;-141.97;40.43;47526.75;4900042;29;20421;-93
2023/03/30 01:33:17;;;;;;;8.80;4.30;;;;;;;-141.97;40.49;47603.66;4915369;29;20466;-93
2023/03/30 01:36:35;;;;;;;7.50;4.20;;;;;;;-141.97;40.71;47549.84;4918266;29;20430;-93
2023/03/30 01:39:12;;;;;;;7.97;4.50;;;;;;;-141.97;41.13;47599.81;4866857;29;20452;-93
2023/03/30 01:42:09;;;;;;;7.93;4.40;;;;;;;-141.97;41.05;47519.06;4860487;29;20428;-93
2023/03/30 01:44:49;;;;;;;10.53;5.07;;;;;;;-141.97;41.53;47553.69;4849029;29;20473;-94
2023/03/30 01:47:22;;;;;;;9.30;4.90;;;;;;;-141.97;41.46;47447.97;4851883;29;20486;-93
2023/03/30 01:50:02;;;;;;;10.70;5.10;;;;;;;-141.97;41.53;47578.66;4865437;29;20431;-94
2023/03/30 01:52:39;;;;;;;10.23;4.60;;;;;;;-141.97;42.25;47599.81;4865037;29;20479;-94
2023/03/30 01:55:11;;;;;;;10.77;5.20;;;;;;;-141.97;42.66;47553.69;4866106;29;20428;-93
2023/03/30 01:57:49;;;;;;;8.23;4.87;;;;;;;-141.97;42.80;47605.56;4881257;29;20487;-94
2023/03/30 02:00:19;;;;;;;10.53;4.77;;;;;;;-141.97;42.85;47442.19;4880534;29;20623;-93
2023/03/30 02:02:51;;;;;;;11.43;5.03;;;;;;;-141.97;43.09;47549.84;4881429;29;20523;-93
2023/03/30 02:05:19;;;;;;;9.67;4.97;;;;;;;-141.97;42.42;47640.16;4881079;29;20854;-94
2023/03/30 02:07:52;;;;;;;9.07;4.70;;;;;;;-141.97;41.86;47603.66;4881042;29;20434;-94
2023/03/30 02:10:21;;;;;;;9.43;4.80;;;;;;;-141.97;42.16;47542.16;4886588;29;20409;-93
2023/03/30 02:12:47;;;;;;;11.93;5.13;;;;;;;-141.97;42.04;47428.75;4884349;29;20476;-93
2023/03/30 02:15:15;;;;;;;9.77;4.73;;;;;;;-141.97;42.20;47478.72;4936351;23;20438;-89
2023/03/30 02:17:41;;;;;;;8.30;4.53;;;;;;;-141.97;42.22;47607.50;4910752;29;20458;-94
2023/03/30 02:20:11;;;;;;;11.13;5.23;;;;;;;-141.97;42.04;47628.63;4903940;29;20526;-93
2023/03/30 02:22:38;;;;;;;9.87;4.53;;;;;;;-141.97;42.36;47592.13;4903061;29;20321;-93
2023/03/30 02:25:05;;;;;;;11.43;5.70;;;;;;;-141.97;42.62;47413.38;4902108;29;20419;-93
2023/03/30 02:27:32;;;;;;;11.83;5.10;;;;;;;-141.97;43.01;47601.72;4913319;29;20427;-93
2023/03/30 02:29:58;;;;;;;9.73;5.30;;;;;;;-141.97;43.45;47561.38;4912691;29;20449;-92
2023/03/30 02:32:32;;;;;;;11.60;5.77;;;;;;;-141.97;43.61;47394.16;4905916;29;20571;-93
2023/03/30 02:35:15;;;;;;;10.90;5.50;;;;;;;-141.97;43.54;47403.75;4919466;29;20281;-92
2023/03/30 02:38:08;;;;;;;11.50;5.43;;;;;;;-141.97;43.52;47544.06;4905065;29;20901;-93
2023/03/30 02:41:10;;;;;;;12.43;5.70;;;;;;;-141.97;44.02;47619.03;4906612;29;20430;-93
2023/03/30 02:43:48;;;;;;;14.70;6.37;;;;;;;-141.97;44.00;47569.06;4903708;29;20501;-92
2023/03/30 02:46:16;;;;;;;14.33;7.40;;;;;;;-141.97;44.18;47569.06;4902157;29;20433;-94
2023/03/30 02:48:58;;;;;;;18.27;8.13;;;;;;;-141.97;44.88;47570.97;4901550;29;20454;-94
2023/03/30 02:51:36;;;;;;;21.63;8.03;;;;;;;-141.97;45.14;47549.84;4916856;29;20415;-94
2023/03/30 02:54:24;;;;;;;21.30;8.67;;;;;;;-141.97;44.85;47557.53;4917795;29;20471;-94
2023/03/30 02:57:10;;;;;;;29.67;11.10;;;;;;;-141.97;44.84;47567.13;4900848;29;20434;-93
2023/03/30 02:59:45;;;;;;;25.50;10.13;;;;;;;-141.97;44.91;47588.28;4915866;29;20490;-93
2023/03/30 03:02:18;;;;;;;30.33;10.27;;;;;;;-141.97;44.94;47580.59;4900884;29;20890;-92
2023/03/30 03:04:45;;;;;;;25.43;9.90;;;;;;;-141.97;45.54;47580.59;4901578;29;20418;-93
2023/03/30 03:07:12;;;;;;;22.87;9.10;;;;;;;-141.97;45.03;47601.72;4902970;29;20425;-92
2023/03/30 03:09:38;;;;;;;23.83;9.67;;;;;;;-141.97;45.52;47634.41;4900981;29;20422;-93
2023/03/30 03:12:04;;;;;;;25.53;9.40;;;;;;;-141.97;45.26;47540.22;4917429;29;20779;-92
2023/03/30 03:14:30;;;;;;;19.10;8.30;;;;;;;-141.97;45.06;47546.00;4917060;29;20216;-92
2023/03/30 03:16:55;;;;;;;58.80;21.30;;;;;;;-141.97;44.76;47426.81;4901042;29;20560;-92
2023/03/30 03:19:21;;;;;;;40.83;15.43;;;;;;;-141.97;44.87;47524.84;4920290;29;20201;-91
2023/03/30 03:21:47;;;;;;;33.77;12.20;;;;;;;-141.97;44.68;47496.00;4904547;29;20219;-93
2023/03/30 03:24:16;;;;;;;32.03;15.03;;;;;;;-141.97;45.26;47655.53;4902734;29;20430;-94
2023/03/30 03:26:44;;;;;;;40.40;19.27;;;;;;;-141.97;45.59;47453.72;4903328;29;20178;-92
2023/03/30 03:29:10;;;;;;;38.23;17.17;;;;;;;-141.97;45.27;47592.13;4903102;29;20418;-93
2023/03/30 03:31:36;;;;;;;42.93;16.07;;;;;;;-141.97;45.58;47522.91;4916615;29;20426;-93
2023/03/30 03:34:02;;;;;;;30.20;14.07;;;;;;;-141.97;45.78;47469.09;4917967;29;20202;-93
2023/03/30 03:36:27;;;;;;;33.00;13.70;;;;;;;-141.97;45.61;47469.09;4900916;29;20449;-90
2023/03/30 03:38:53;;;;;;;32.57;14.83;;;;;;;-141.97;45.55;47567.13;4908827;29;20174;-92
2023/03/30 03:41:19;;;;;;;53.20;26.10;;;;;;;-141.97;45.58;47534.44;4902804;29;20209;-92
2023/03/30 03:43:44;;;;;;;38.27;18.17;;;;;;;-141.97;45.35;47592.13;4901337;29;20167;-93
2023/03/30 03:46:10;;;;;;;39.60;19.60;;;;;;;-141.97;45.98;47538.28;4901490;29;20507;-92
2023/03/30 03:48:36;;;;;;;47.70;21.57;;;;;;;-141.97;46.34;47455.66;4916762;29;20628;-93
2023/03/30 03:51:02;;;;;;;45.93;17.60;;;;;;;-141.97;46.71;47599.81;4901394;29;20174;-92
2023/03/30 03:53:27;;;;;;;38.97;17.23;;;;;;;-141.97;46.71;47476.78;4904210;29;20307;-92
2023/03/30 03:55:53;;;;;;;38.73;14.67;;;;;;;-141.97;46.58;47476.78;4919824;29;20261;-92
2023/03/30 03:58:20;;;;;;;32.53;14.23;;;;;;;-141.97;47.18;47553.69;4904400;29;20230;-94
2023/03/30 04:00:46;;;;;;;35.53;14.57;;;;;;;-141.97;47.20;47494.09;4921612;29;20190;-93
2023/03/30 04:03:12;;;;;;;35.53;12.67;;;;;;;-141.97;47.28;47447.97;4919757;29;20422;-92
2023/03/30 04:05:38;;;;;;;30.33;14.80;;;;;;;-141.97;47.68;47617.09;4903980;29;20497;-93
2023/03/30 04:08:04;;;;;;;32.67;13.97;;;;;;;-141.97;47.17;47592.13;4919302;29;20174;-93
2023/03/30 04:10:29;;;;;;;29.67;12.70;;;;;;;-141.97;47.02;47599.81;4906089;29;20186;-93
2023/03/30 04:12:56;;;;;;;26.90;12.23;;;;;;;-141.97;47.27;47634.41;4904033;29;20454;-93
2023/03/30 04:15:23;;;;;;;29.47;14.17;;;;;;;-141.97;47.13;47563.28;4904529;29;20576;-92
2023/03/30 04:17:49;;;;;;;30.73;13.87;;;;;;;-141.97;47.61;47486.41;4903838;29;20410;-93
2023/03/30 04:20:15;;;;;;;29.73;13.10;;;;;;;-141.97;47.54;47557.53;4903388;29;20450;-93
2023/03/30 04:22:41;;;;;;;27.83;12.80;;;;;;;-141.97;47.42;47576.75;4903210;29;20575;-93
2023/03/30 04:25:13;;;;;;;29.23;13.03;;;;;;;-141.97;47.74;47553.69;4903784;29;20457;-93
2023/03/30 04:27:41;;;;;;;32.27;14.13;;;;;;;-141.97;47.65;47511.38;4904498;29;20554;-93
2023/03/30 04:30:09;;;;;;;29.13;13.90;;;;;;;-141.97;47.34;47517.16;4900483;29;20421;-92
2023/03/30 04:32:37;;;;;;;27.40;13.17;;;;;;;-141.97;47.40;47557.53;4905462;29;20529;-92
2023/03/30 04:35:07;;;;;;;27.97;12.50;;;;;;;-141.97;47.46;47603.66;4921453;29;20430;-93
2023/03/30 04:37:34;;;;;;;28.53;13.37;;;;;;;-141.97;47.67;47605.56;4891716;29;20415;-93
2023/03/30 04:40:00;;;;;;;26.47;12.70;;;;;;;-141.97;46.72;47580.59;4886708;29;20494;-93
2023/03/30 04:42:33;;;;;;;27.53;12.27;;;;;;;-141.97;47.17;47524.84;4908788;29;20516;-93
2023/03/30 04:45:11;;;;;;;28.33;12.23;;;;;;;-141.97;47.22;47582.50;4916818;29;20447;-94
2023/03/30 04:47:36;;;;;;;23.57;11.03;;;;;;;-141.97;46.94;47484.47;4934077;23;20498;-93
2023/03/30 04:50:02;;;;;;;26.30;11.47;;;;;;;-141.97;47.00;47430.66;4897603;29;20428;-93
2023/03/30 04:52:28;;;;;;;29.80;12.33;;;;;;;-141.97;47.19;47472.94;4890473;29;20209;-93
2023/03/30 04:54:53;;;;;;;25.20;12.13;;;;;;;-141.97;46.89;47553.69;4900691;29;20234;-92
2023/03/30 04:57:19;;;;;;;25.47;12.20;;;;;;;-141.97;46.95;47519.06;4905301;29;20219;-92
2023/03/30 04:59:45;;;;;;;31.87;12.60;;;;;;;-141.97;46.79;47628.63;4888342;29;20184;-92
2023/03/30 05:02:12;;;;;;;32.87;12.90;;;;;;;-141.97;46.42;47580.59;4902167;29;20279;-93
2023/03/30 05:04:38;;;;;;;31.20;12.43;;;;;;;-141.97;46.18;47467.19;4902101;29;20629;-91
2023/03/30 05:07:05;;;;;;;26.67;12.17;;;;;;;-141.97;45.58;47463.34;4908249;29;20434;-92
2023/03/30 05:09:31;;;;;;;31.93;13.23;;;;;;;-141.97;44.76;47605.56;4914193;29;20426;-91
2023/03/30 05:11:56;;;;;;;29.60;13.13;;;;;;;-141.97;44.93;47411.44;4912013;29;20432;-92
2023/03/30 05:14:22;;;;;;;33.73;14.77;;;;;;;-141.97;44.90;47480.63;4903621;29;20477;-91
2023/03/30 05:16:47;;;;;;;34.00;14.03;;;;;;;-141.97;44.55;47522.91;4889438;29;20267;-91
2023/03/30 05:19:13;;;;;;;31.30;12.83;;;;;;;-141.97;43.92;47626.72;4883854;29;20221;-90
2023/03/30 05:21:38;;;;;;;32.17;12.80;;;;;;;-141.97;43.71;47538.28;4884669;29;20175;-92
2023/03/30 05:24:04;;;;;;;32.37;14.57;;;;;;;-141.97;43.74;47530.59;4884466;29;20639;-92
2023/03/30 05:26:30;;;;;;;24.17;10.50;;;;;;;-141.97;42.51;47476.78;4915941;29;20178;-92
2023/03/30 05:28:56;;;;;;;25.53;12.47;;;;;;;-141.97;42.42;47572.91;4904624;29;20445;-93
2023/03/30 05:31:21;;;;;;;34.43;17.13;;;;;;;-141.97;42.37;47599.81;4919962;29;20170;-92
2023/03/30 05:33:47;;;;;;;49.83;25.30;;;;;;;-141.97;42.06;47603.66;4901710;29;20209;-92
2023/03/30 05:36:13;;;;;;;49.43;23.47;;;;;;;-141.97;41.38;47549.84;4886145;29;20596;-92
2023/03/30 05:38:38;;;;;;;40.77;20.03;;;;;;;-141.97;41.32;47453.72;4902442;29;20185;-91
2023/03/30 05:41:05;;;;;;;44.00;21.27;;;;;;;-141.97;41.15;47492.16;4901300;29;20415;-93
2023/03/30 05:43:34;;;;;;;43.47;21.87;;;;;;;-141.97;40.62;47559.44;4901379;29;20186;-89
2023/03/30 05:46:01;;;;;;;34.83;16.50;;;;;;;-141.97;40.34;47657.47;4901170;29;20503;-91
2023/03/30 05:48:27;;;;;;;31.57;14.77;;;;;;;-141.97;40.13;47515.22;4899122;29;20415;-90
2023/03/30 05:50:52;;;;;;;35.57;15.43;;;;;;;-141.97;40.04;47480.63;4899189;29;20434;-91
2023/03/30 05:53:18;;;;;;;40.73;20.53;;;;;;;-141.97;40.09;47576.75;4897874;29;20462;-90
2023/03/30 05:55:45;;;;;;;34.23;17.10;;;;;;;-141.97;39.58;47540.22;4882193;29;20182;-91
2023/03/30 05:58:11;;;;;;;26.73;9.87;;;;;;;-141.97;39.32;47557.53;4882644;29;20195;-91
2023/03/30 06:00:37;;;;;;;38.47;13.20;;;;;;;-141.97;39.19;47496.00;4882644;29;20834;-92
2023/03/30 06:03:03;;;;;;;37.10;13.67;;;;;;;-141.97;39.27;47653.63;4898547;29;20202;-92
2023/03/30 06:05:32;;;;;;;34.60;11.03;;;;;;;-141.97;38.99;47592.13;4898944;29;20776;-90
2023/03/30 06:07:59;;;;;;;58.87;21.87;;;;;;;-141.97;39.29;47640.16;4900022;29;20167;-90
2023/03/30 06:10:25;;;;;;;80.50;30.43;;;;;;;-141.97;38.63;47497.94;4897672;29;20948;-90
2023/03/30 06:12:50;;;;;;;33.53;14.63;;;;;;;-141.97;38.84;47472.94;4896824;29;20518;-91
2023/03/30 06:15:16;;;;;;;40.67;19.60;;;;;;;-141.97;38.33;47661.31;4897150;29;20179;-88
2023/03/30 06:17:41;;;;;;;39.47;16.73;;;;;;;-141.97;38.48;47580.59;4897704;29;20182;-89
2023/03/30 06:20:11;;;;;;;17.27;8.70;;;;;;;-141.97;38.16;47636.31;4898402;29;20246;-89
2023/03/30 06:22:37;;;;;;;18.73;8.80;;;;;;;-141.97;38.46;47667.06;4895723;29;20217;-88
2023/03/30 06:25:03;;;;;;;18.83;10.50;;;;;;;-141.97;38.28;47626.72;4899295;29;20515;-89
2023/03/30 06:27:31;;;;;;;18.73;8.90;;;;;;;-141.97;37.92;47509.47;4897599;29;20249;-90
2023/03/30 06:29:57;;;;;;;16.03;7.40;;;;;;;-141.97;38.21;47492.16;4877651;29;20202;-90
2023/03/30 06:32:22;;;;;;;19.60;7.93;;;;;;;-141.97;37.95;47540.22;4885798;29;20298;-89
2023/03/30 06:34:48;;;;;;;14.30;7.03;;;;;;;-141.97;37.89;47519.06;4894578;29;20292;-89
2023/03/30 06:37:14;;;;;;;32.37;18.63;;;;;;;-141.97;37.97;47592.13;4881275;29;20205;-90
2023/03/30 06:39:39;;;;;;;41.27;22.53;;;;;;;-141.97;37.89;47482.56;4881545;29;20573;-89
2023/03/30 06:42:05;;;;;;;19.63;11.07;;;;;;;-141.97;37.69;47507.53;4898658;29;20175;-91
2023/03/30 06:44:33;;;;;;;26.47;13.67;;;;;;;-141.97;37.63;47544.06;4899423;29;20265;-90
2023/03/30 06:46:58;;;;;;;27.27;13.80;;;;;;;-141.97;37.67;47680.53;4892342;29;20700;-89
2023/03/30 06:49:24;;;;;;;16.37;7.80;;;;;;;-141.97;37.62;47661.31;4882042;29;20183;-89
2023/03/30 06:51:50;;;;;;;14.33;7.03;;;;;;;-141.97;37.97;47457.56;4911956;29;20202;-90
2023/03/30 06:54:18;;;;;;;13.27;8.20;;;;;;;-141.97;38.64;47630.56;4900011;29;20230;-90
2023/03/30 06:56:45;;;;;;;11.90;6.70;;;;;;;-141.97;38.15;47634.41;4901433;29;20652;-90
2023/03/30 06:59:12;;;;;;;11.10;6.23;;;;;;;-141.97;38.05;47622.88;4880481;29;20174;-90
2023/03/30 07:01:37;;;;;;;22.07;11.33;;;;;;;-141.97;37.38;47620.94;4896415;29;20707;-89
2023/03/30 07:04:03;;;;;;;19.27;12.80;;;;;;;-141.97;37.20;47588.28;4897431;29;20198;-89
2023/03/30 07:06:28;;;;;;;17.43;9.83;;;;;;;-141.97;36.70;47630.56;4896951;29;20193;-90
2023/03/30 07:08:54;;;;;;;8.83;4.80;;;;;;;-141.97;37.26;47530.59;4883176;29;20187;-89
2023/03/30 07:11:21;;;;;;;8.40;4.47;;;;;;;-141.97;36.84;47615.19;4899918;29;20713;-91
2023/03/30 07:13:46;;;;;;;8.33;4.43;;;;;;;-141.97;37.46;47413.38;4881888;29;20541;-88
2023/03/30 07:16:12;;;;;;;7.77;4.33;;;;;;;-141.97;37.80;47380.69;4882554;29;20182;-90
2023/03/30 07:18:37;;;;;;;7.57;3.67;;;;;;;-141.97;38.25;47705.53;4898527;29;20179;-88
2023/03/30 07:21:03;;;;;;;24.00;11.53;;;;;;;-141.97;38.44;47430.66;4898991;29;20187;-90
2023/03/30 07:23:32;;;;;;;15.63;6.60;;;;;;;-141.97;37.74;47617.09;4875780;29;20672;-89
2023/03/30 07:26:00;;;;;;;16.67;7.17;;;;;;;-141.97;37.89;47507.53;4891342;29;20661;-88
2023/03/30 07:28:25;;;;;;;10.17;5.40;;;;;;;-141.97;37.66;47563.28;4901558;29;20186;-88
2023/03/30 07:30:51;;;;;;;7.63;4.30;;;;;;;-141.97;37.49;47595.97;4893042;29;20238;-90
2023/03/30 07:33:17;;;;;;;10.63;5.40;;;;;;;-141.97;37.22;47592.13;4903688;29;20244;-89
2023/03/30 07:35:46;;;;;;;8.33;4.50;;;;;;;-141.97;37.46;47549.84;4906733;29;20230;-88
2023/03/30 07:38:13;;;;;;;14.70;7.60;;;;;;;-141.97;37.31;47592.13;4908185;29;20178;-88
2023/03/30 07:40:39;;;;;;;14.77;7.87;;;;;;;-141.97;36.40;47419.13;4907176;29;20167;-90
2023/03/30 07:43:06;;;;;;;9.93;4.57;;;;;;;-141.97;36.21;47588.28;4901866;29;20187;-89
2023/03/30 07:45:31;;;;;;;8.07;4.43;;;;;;;-141.97;35.60;47432.59;4909991;29;20231;-88
2023/03/30 07:47:57;;;;;;;9.53;4.80;;;;;;;-141.97;35.54;47670.91;4915666;29;20214;-88
2023/03/30 07:50:24;;;;;;;12.60;7.40;;;;;;;-141.97;35.62;47361.47;4910628;29;20610;-89
2023/03/30 07:52:51;;;;;;;14.57;7.90;;;;;;;-141.97;36.42;47474.88;4917166;29;20189;-89
2023/03/30 07:55:17;;;;;;;11.43;6.27;;;;;;;-141.97;35.60;47567.13;4916175;29;20223;-88
2023/03/30 07:57:43;;;;;;;10.43;5.37;;;;;;;-141.97;35.22;47669.00;4906632;29;20191;-89
2023/03/30 08:00:09;;;;;;;11.00;5.57;;;;;;;-141.97;35.46;47365.31;4901089;29;20209;-90
2023/03/30 08:02:35;;;;;;;10.17;5.00;;;;;;;-141.97;35.06;47594.03;4903197;29;20171;-89
2023/03/30 08:05:01;;;;;;;9.47;5.07;;;;;;;-141.97;34.88;47369.16;4901706;29;20182;-90
2023/03/30 08:07:27;;;;;;;11.43;5.03;;;;;;;-141.97;34.89;47678.63;4887994;29;20178;-88
2023/03/30 08:09:53;;;;;;;7.87;5.03;;;;;;;-141.97;35.51;47499.84;4910780;29;20320;-89
2023/03/30 08:12:19;;;;;;;13.93;5.73;;;;;;;-141.97;35.02;47532.53;4906798;29;20629;-88
2023/03/30 08:14:45;;;;;;;10.90;5.30;;;;;;;-141.97;34.67;47474.88;4886826;29;20219;-90
2023/03/30 08:17:11;;;;;;;7.07;4.03;;;;;;;-141.97;34.39;47442.19;4904444;29;20558;-89
2023/03/30 08:19:37;;;;;;;7.47;4.50;;;;;;;-141.97;34.47;47672.84;4900873;29;20171;-90
2023/03/30 08:22:02;;;;;;;7.40;4.70;;;;;;;-141.97;33.88;47592.13;4889642;29;20172;-88
2023/03/30 08:24:28;;;;;;;6.83;4.23;;;;;;;-141.97;33.40;47634.41;4914528;29;20238;-90
2023/03/30 08:26:53;;;;;;;6.20;4.07;;;;;;;-141.97;32.82;47724.75;4918329;29;20205;-86
2023/03/30 08:29:19;;;;;;;9.20;4.87;;;;;;;-141.97;33.96;47663.22;4921319;29;20273;-89
2023/03/30 08:31:45;;;;;;;10.90;6.03;;;;;;;-141.97;33.95;47720.91;4911530;29;20225;-88
2023/03/30 08:34:11;;;;;;;8.60;5.43;;;;;;;-141.97;34.04;47492.16;4922829;29;20288;-88
2023/03/30 08:36:39;;;;;;;9.37;5.50;;;;;;;-141.97;33.67;47428.75;4907132;29;20218;-89
2023/03/30 08:39:04;;;;;;;8.40;4.70;;;;;;;-141.97;33.68;47551.75;4898699;29;20246;-91
2023/03/30 08:41:47;;;;;;;7.27;4.23;;;;;;;-141.97;33.43;47570.97;4904312;29;20234;-89
2023/03/30 08:44:32;;;;;;;5.93;4.17;;;;;;;-141.97;33.90;47546.00;4900485;29;20182;-90
2023/03/30 08:47:02;;;;;;;9.90;5.67;;;;;;;-141.97;32.72;47421.06;4902969;29;20249;-90
2023/03/30 08:49:32;;;;;;;8.83;5.57;;;;;;;-141.97;32.63;47659.38;4900022;29;20314;-90
2023/03/30 08:52:03;;;;;;;6.17;4.20;;;;;;;-141.97;32.83;47503.69;4872898;29;20178;-92
2023/03/30 08:54:31;;;;;;;7.07;4.33;;;;;;;-141.97;33.85;47519.06;4873284;29;20207;-92
2023/03/30 08:57:25;;;;;;;8.00;4.70;;;;;;;-141.97;33.45;47453.72;4881049;29;20176;-89
2023/03/30 09:00:20;;;;;;;7.33;4.37;;;;;;;-141.97;33.58;47557.53;4877438;29;20274;-90
2023/03/30 09:02:50;;;;;;;4.23;2.97;;;;;;;-141.97;32.86;47553.69;4838054;29;20205;-90
2023/03/30 09:05:45;;;;;;;7.23;3.60;;;;;;;-141.97;33.26;47546.00;4829083;29;20224;-90
2023/03/30 09:08:21;;;;;;;5.90;4.10;;;;;;;-141.97;32.40;47570.97;4831688;29;20735;-90
2023/03/30 09:10:53;;;;;;;8.93;4.20;;;;;;;-141.97;32.66;47492.16;4832860;29;20193;-91
2023/03/30 09:13:24;;;;;;;7.10;4.77;;;;;;;-141.97;32.16;47526.75;4833640;29;20745;-89
2023/03/30 09:16:13;;;;;;;8.90;5.17;;;;;;;-141.97;32.43;47674.78;4836035;29;20215;-90
2023/03/30 09:18:41;;;;;;;9.73;5.10;;;;;;;-141.97;31.64;47472.94;4810119;29;20707;-90
2023/03/30 09:21:12;;;;;;;5.60;4.00;;;;;;;-141.97;31.18;47519.06;4823525;29;20189;-90
2023/03/30 09:23:38;;;;;;;4.90;3.33;;;;;;;-141.97;29.98;47565.22;4837438;29;20184;-90
2023/03/30 09:26:27;;;;;;;6.33;3.30;;;;;;;-141.97;29.91;47555.59;4818953;29;20206;-89
2023/03/30 09:29:01;;;;;;;4.80;3.20;;;;;;;-141.97;29.32;47544.06;4838132;29;20192;-90
2023/03/30 09:31:40;;;;;;;4.00;2.90;;;;;;;-141.97;29.79;47547.91;4806165;29;20792;-90
2023/03/30 09:34:26;;;;;;;5.67;3.67;;;;;;;-141.97;30.01;47565.22;4830905;29;20228;-91
2023/03/30 09:37:06;;;;;;;4.57;3.10;;;;;;;-141.97;30.01;47553.69;4826139;29;20188;-91
2023/03/30 09:39:34;;;;;;;6.83;3.20;;;;;;;-141.97;30.08;47490.25;4856520;29;20190;-90
2023/03/30 09:42:17;;;;;;;3.23;2.67;;;;;;;-141.97;28.85;47555.59;4881724;29;20185;-91
2023/03/30 09:44:59;;;;;;;3.80;2.50;;;;;;;-141.97;28.69;47499.84;4893909;29;20189;-91
2023/03/30 09:47:38;;;;;;;4.60;2.83;;;;;;;-141.97;29.18;47557.53;4884980;29;20237;-90
2023/03/30 09:50:25;;;;;;;6.80;3.97;;;;;;;-141.97;28.71;47634.41;4898321;29;20175;-90
2023/03/30 09:53:21;;;;;;;6.93;4.13;;;;;;;-141.97;29.50;47647.84;4896479;29;20183;-89
2023/03/30 09:56:00;;;;;;;5.97;3.60;;;;;;;-141.97;29.64;47569.06;4897428;29;20171;-91
2023/03/30 09:58:32;;;;;;;8.27;4.17;;;;;;;-141.97;28.78;47430.66;4898320;29;20234;-90
2023/03/30 10:01:13;;;;;;;3.03;2.70;;;;;;;-141.97;29.33;47432.59;4866549;29;20318;-90
2023/03/30 10:03:40;;;;;;;4.60;2.67;;;;;;;-141.97;28.96;47411.44;4880607;29;20238;-90
2023/03/30 10:06:11;;;;;;;4.80;2.73;;;;;;;-141.97;29.77;47532.53;4897586;29;20194;-90
2023/03/30 10:08:57;;;;;;;3.53;2.33;;;;;;;-141.97;29.39;47536.38;4895635;29;20200;-89
2023/03/30 10:11:36;;;;;;;7.77;3.30;;;;;;;-141.97;29.51;47534.44;4895629;29;20292;-88
2023/03/30 10:14:03;;;;;;;5.23;3.50;;;;;;;-141.97;30.05;47551.75;4884902;29;20244;-89
2023/03/30 10:16:33;;;;;;;8.33;3.70;;;;;;;-141.97;29.99;47382.63;4897273;29;20171;-87
2023/03/30 10:19:06;;;;;;;6.30;3.70;;;;;;;-141.97;29.82;47628.63;4896144;29;20548;-88
2023/03/30 10:21:40;;;;;;;7.57;3.60;;;;;;;-141.97;30.28;47513.31;4896190;29;20202;-89
2023/03/30 10:24:22;;;;;;;5.03;3.10;;;;;;;-141.97;30.44;47536.38;4867610;29;20543;-91
2023/03/30 10:26:57;;;;;;;5.53;3.67;;;;;;;-141.97;31.50;47532.53;4885156;29;20556;-88
2023/03/30 10:29:25;;;;;;;6.47;3.57;;;;;;;-141.97;31.17;47544.06;4894537;29;20186;-89
2023/03/30 10:32:01;;;;;;;4.70;2.50;;;;;;;-141.97;31.06;47484.47;4883529;29;20278;-88
2023/03/30 10:34:40;;;;;;;3.90;2.90;;;;;;;-141.97;31.54;47519.06;4898472;29;20204;-87
2023/03/30 10:37:19;;;;;;;4.60;3.00;;;;;;;-141.97;31.00;47459.50;4892785;29;20582;-89
2023/03/30 10:39:47;;;;;;;4.40;2.93;;;;;;;-141.97;31.04;47640.16;4896834;29;20171;-89
2023/03/30 10:42:31;;;;;;;5.03;2.80;;;;;;;-141.97;30.48;47642.09;4889119;29;20398;-89
2023/03/30 10:45:00;;;;;;;3.37;2.60;;;;;;;-141.97;30.37;47511.38;4890900;29;20182;-88
2023/03/30 10:47:25;;;;;;;4.70;2.93;;;;;;;-141.97;29.97;47555.59;4877817;29;20279;-88
2023/03/30 10:50:12;;;;;;;4.23;2.73;;;;;;;-141.97;30.28;47549.84;4874111;29;20639;-88
2023/03/30 10:53:05;;;;;;;7.00;3.10;;;;;;;-141.97;30.05;47546.00;4853343;29;20687;-89
2023/03/30 10:55:55;;;;;;;4.70;2.37;;;;;;;-141.97;29.59;47496.00;4808160;29;20209;-88
2023/03/30 10:59:02;;;;;;;5.57;2.67;;;;;;;-141.97;30.18;47509.47;4814093;29;20186;-88
2023/03/30 11:01:50;;;;;;;4.70;2.60;;;;;;;-141.97;30.14;47522.91;4772895;30;20206;-87
2023/03/30 11:04:42;;;;;;;3.90;2.70;;;;;;;-141.97;30.80;47682.47;4782371;30;20211;-88
2023/03/30 11:07:16;;;;;;;3.47;3.00;;;;;;;-141.97;30.33;47501.78;4786378;29;20211;-89
2023/03/30 11:09:52;;;;;;;5.37;3.33;;;;;;;-141.97;29.72;47522.91;4774041;30;20195;-87
2023/03/30 11:12:21;;;;;;;7.60;2.87;;;;;;;-141.97;29.49;47488.31;4758729;30;20195;-87
2023/03/30 11:14:55;;;;;;;4.70;3.10;;;;;;;-141.97;29.47;47534.44;4763963;30;20209;-87
2023/03/30 11:17:32;;;;;;;5.23;3.27;;;;;;;-141.97;29.99;47519.06;4760110;30;20207;-87
2023/03/30 11:20:17;;;;;;;6.03;2.57;;;;;;;-141.97;28.00;47536.38;4759528;30;20203;-89
2023/03/30 11:22:52;;;;;;;2.20;2.00;;;;;;;-141.97;26.68;47542.16;4778339;30;20188;-88
2023/03/30 11:25:29;;;;;;;5.20;1.97;;;;;;;-141.97;26.81;47478.72;4758869;30;20716;-87
2023/03/30 11:28:08;;;;;;;6.13;3.60;;;;;;;-141.97;27.13;47476.78;4756602;30;20190;-88